sensor_id;sensor_type;location;lat;lon;timestamp;temperature;humidity
12704;DHT22;6416;52.182;7.650;2023-08-06T00:00:23;18.50;88.00
12704;DHT22;6416;52.182;7.650;2023-08-06T00:02:49;18.50;88.10
12704;DHT22;6416;52.182;7.650;2023-08-06T00:05:15;18.50;88.20
12704;DHT22;6416;52.182;7.650;2023-08-06T00:07:40;18.40;88.20
12704;DHT22;6416;52.182;7.650;2023-08-06T00:10:06;18.40;88.40
12704;DHT22;6416;52.182;7.650;2023-08-06T00:12:32;18.40;88.40
12704;DHT22;6416;52.182;7.650;2023-08-06T00:14:57;18.40;88.60
12704;DHT22;6416;52.182;7.650;2023-08-06T00:17:23;18.40;88.70
12704;DHT22;6416;52.182;7.650;2023-08-06T00:19:48;18.40;88.90
12704;DHT22;6416;52.182;7.650;2023-08-06T00:22:14;18.40;89.00
12704;DHT22;6416;52.182;7.650;2023-08-06T00:24:39;18.40;89.00
12704;DHT22;6416;52.182;7.650;2023-08-06T00:27:05;18.40;89.00
12704;DHT22;6416;52.182;7.650;2023-08-06T00:29:30;18.40;89.00
12704;DHT22;6416;52.182;7.650;2023-08-06T00:31:56;18.40;89.00
12704;DHT22;6416;52.182;7.650;2023-08-06T00:34:21;18.40;88.90
12704;DHT22;6416;52.182;7.650;2023-08-06T00:36:47;18.30;88.70
12704;DHT22;6416;52.182;7.650;2023-08-06T00:39:12;18.30;89.40
12704;DHT22;6416;52.182;7.650;2023-08-06T00:41:38;18.30;88.60
12704;DHT22;6416;52.182;7.650;2023-08-06T00:44:03;18.30;88.70
12704;DHT22;6416;52.182;7.650;2023-08-06T00:46:29;18.20;88.70
12704;DHT22;6416;52.182;7.650;2023-08-06T00:48:56;18.10;88.70
12704;DHT22;6416;52.182;7.650;2023-08-06T00:51:22;18.10;88.90
12704;DHT22;6416;52.182;7.650;2023-08-06T00:53:50;18.10;89.10
12704;DHT22;6416;52.182;7.650;2023-08-06T00:56:15;18.10;89.40
12704;DHT22;6416;52.182;7.650;2023-08-06T00:58:41;18.10;89.70
12704;DHT22;6416;52.182;7.650;2023-08-06T01:01:07;18.10;89.90
12704;DHT22;6416;52.182;7.650;2023-08-06T01:03:32;18.10;90.00
12704;DHT22;6416;52.182;7.650;2023-08-06T01:05:58;18.10;90.00
12704;DHT22;6416;52.182;7.650;2023-08-06T01:09:05;18.10;90.10
12704;DHT22;6416;52.182;7.650;2023-08-06T01:11:58;18.10;90.20
12704;DHT22;6416;52.182;7.650;2023-08-06T01:14:33;18.10;90.10
12704;DHT22;6416;52.182;7.650;2023-08-06T01:17:01;18.10;90.20
12704;DHT22;6416;52.182;7.650;2023-08-06T01:19:28;18.10;90.20
12704;DHT22;6416;52.182;7.650;2023-08-06T01:21:53;18.10;90.30
12704;DHT22;6416;52.182;7.650;2023-08-06T01:24:19;18.10;90.40
12704;DHT22;6416;52.182;7.650;2023-08-06T01:26:51;18.10;90.50
12704;DHT22;6416;52.182;7.650;2023-08-06T01:29:31;18.10;90.60
12704;DHT22;6416;52.182;7.650;2023-08-06T01:31:59;18.20;90.70
12704;DHT22;6416;52.182;7.650;2023-08-06T01:34:28;18.20;90.70
12704;DHT22;6416;52.182;7.650;2023-08-06T01:36:56;18.20;90.70
12704;DHT22;6416;52.182;7.650;2023-08-06T01:39:22;18.20;90.80
12704;DHT22;6416;52.182;7.650;2023-08-06T01:41:48;18.20;90.80
12704;DHT22;6416;52.182;7.650;2023-08-06T01:44:14;18.20;90.90
12704;DHT22;6416;52.182;7.650;2023-08-06T01:46:40;18.20;90.90
12704;DHT22;6416;52.182;7.650;2023-08-06T01:49:05;18.20;90.90
12704;DHT22;6416;52.182;7.650;2023-08-06T01:51:31;18.20;90.90
12704;DHT22;6416;52.182;7.650;2023-08-06T01:53:56;18.20;90.90
12704;DHT22;6416;52.182;7.650;2023-08-06T01:56:22;18.20;90.90
12704;DHT22;6416;52.182;7.650;2023-08-06T01:58:47;18.20;91.00
12704;DHT22;6416;52.182;7.650;2023-08-06T02:01:12;18.20;91.00
12704;DHT22;6416;52.182;7.650;2023-08-06T02:03:38;18.20;91.10
12704;DHT22;6416;52.182;7.650;2023-08-06T02:06:04;18.20;91.10
12704;DHT22;6416;52.182;7.650;2023-08-06T02:08:30;18.20;91.20
12704;DHT22;6416;52.182;7.650;2023-08-06T02:10:55;18.20;91.20
12704;DHT22;6416;52.182;7.650;2023-08-06T02:13:21;18.20;91.20
12704;DHT22;6416;52.182;7.650;2023-08-06T02:15:46;18.20;91.30
12704;DHT22;6416;52.182;7.650;2023-08-06T02:18:12;18.20;91.30
12704;DHT22;6416;52.182;7.650;2023-08-06T02:20:37;18.30;91.30
12704;DHT22;6416;52.182;7.650;2023-08-06T02:23:03;18.20;91.30
12704;DHT22;6416;52.182;7.650;2023-08-06T02:25:28;18.20;91.30
12704;DHT22;6416;52.182;7.650;2023-08-06T02:27:54;18.30;91.40
12704;DHT22;6416;52.182;7.650;2023-08-06T02:30:19;18.30;91.40
12704;DHT22;6416;52.182;7.650;2023-08-06T02:32:45;18.20;91.30
12704;DHT22;6416;52.182;7.650;2023-08-06T02:35:10;18.20;91.30
12704;DHT22;6416;52.182;7.650;2023-08-06T02:37:36;18.20;91.30
12704;DHT22;6416;52.182;7.650;2023-08-06T02:40:01;18.20;91.30
12704;DHT22;6416;52.182;7.650;2023-08-06T02:42:27;18.20;91.30
12704;DHT22;6416;52.182;7.650;2023-08-06T02:44:53;18.20;91.30
12704;DHT22;6416;52.182;7.650;2023-08-06T02:47:18;18.20;91.30
12704;DHT22;6416;52.182;7.650;2023-08-06T02:49:44;18.20;91.40
12704;DHT22;6416;52.182;7.650;2023-08-06T02:52:09;18.20;91.40
12704;DHT22;6416;52.182;7.650;2023-08-06T02:54:35;18.20;91.50
12704;DHT22;6416;52.182;7.650;2023-08-06T02:57:00;18.10;91.50
12704;DHT22;6416;52.182;7.650;2023-08-06T02:59:26;18.10;91.60
12704;DHT22;6416;52.182;7.650;2023-08-06T03:01:51;18.10;91.70
12704;DHT22;6416;52.182;7.650;2023-08-06T03:04:17;18.10;91.80
12704;DHT22;6416;52.182;7.650;2023-08-06T03:06:42;18.10;91.80
12704;DHT22;6416;52.182;7.650;2023-08-06T03:09:08;18.20;91.80
12704;DHT22;6416;52.182;7.650;2023-08-06T03:11:33;18.20;91.90
12704;DHT22;6416;52.182;7.650;2023-08-06T03:13:58;18.20;91.90
12704;DHT22;6416;52.182;7.650;2023-08-06T03:16:24;18.20;91.90
12704;DHT22;6416;52.182;7.650;2023-08-06T03:18:49;18.20;91.90
12704;DHT22;6416;52.182;7.650;2023-08-06T03:21:15;18.20;91.90
12704;DHT22;6416;52.182;7.650;2023-08-06T03:23:40;18.20;91.90
12704;DHT22;6416;52.182;7.650;2023-08-06T03:26:06;18.20;91.90
12704;DHT22;6416;52.182;7.650;2023-08-06T03:28:31;18.20;91.90
12704;DHT22;6416;52.182;7.650;2023-08-06T03:31:03;18.20;91.90
12704;DHT22;6416;52.182;7.650;2023-08-06T03:33:29;18.10;92.00
12704;DHT22;6416;52.182;7.650;2023-08-06T03:35:55;18.10;92.00
12704;DHT22;6416;52.182;7.650;2023-08-06T03:38:21;18.10;92.00
12704;DHT22;6416;52.182;7.650;2023-08-06T03:40:46;18.10;92.00
12704;DHT22;6416;52.182;7.650;2023-08-06T03:43:12;18.10;92.10
12704;DHT22;6416;52.182;7.650;2023-08-06T03:45:38;18.10;92.10
12704;DHT22;6416;52.182;7.650;2023-08-06T03:48:03;18.10;92.10
12704;DHT22;6416;52.182;7.650;2023-08-06T03:50:29;18.10;92.20
12704;DHT22;6416;52.182;7.650;2023-08-06T03:52:54;18.10;92.20
12704;DHT22;6416;52.182;7.650;2023-08-06T03:55:20;18.10;92.30
12704;DHT22;6416;52.182;7.650;2023-08-06T03:57:46;18.10;92.40
12704;DHT22;6416;52.182;7.650;2023-08-06T04:00:11;18.10;92.50
12704;DHT22;6416;52.182;7.650;2023-08-06T04:02:37;18.10;92.50
12704;DHT22;6416;52.182;7.650;2023-08-06T04:05:02;18.10;92.60
12704;DHT22;6416;52.182;7.650;2023-08-06T04:07:28;18.10;92.60
12704;DHT22;6416;52.182;7.650;2023-08-06T04:10:02;18.10;92.70
12704;DHT22;6416;52.182;7.650;2023-08-06T04:12:28;18.10;92.70
12704;DHT22;6416;52.182;7.650;2023-08-06T04:14:54;18.10;92.80
12704;DHT22;6416;52.182;7.650;2023-08-06T04:17:20;18.20;92.80
12704;DHT22;6416;52.182;7.650;2023-08-06T04:19:50;18.20;92.90
12704;DHT22;6416;52.182;7.650;2023-08-06T04:22:15;18.20;92.90
12704;DHT22;6416;52.182;7.650;2023-08-06T04:24:41;18.20;92.90
12704;DHT22;6416;52.182;7.650;2023-08-06T04:27:07;18.20;92.90
12704;DHT22;6416;52.182;7.650;2023-08-06T04:29:33;18.20;93.00
12704;DHT22;6416;52.182;7.650;2023-08-06T04:31:58;18.20;93.00
12704;DHT22;6416;52.182;7.650;2023-08-06T04:34:24;18.20;93.10
12704;DHT22;6416;52.182;7.650;2023-08-06T04:36:49;18.20;93.10
12704;DHT22;6416;52.182;7.650;2023-08-06T04:39:15;18.30;93.20
12704;DHT22;6416;52.182;7.650;2023-08-06T04:41:40;18.20;93.20
12704;DHT22;6416;52.182;7.650;2023-08-06T04:44:06;18.30;93.30
12704;DHT22;6416;52.182;7.650;2023-08-06T04:46:31;18.30;93.30
12704;DHT22;6416;52.182;7.650;2023-08-06T04:48:57;18.30;93.40
12704;DHT22;6416;52.182;7.650;2023-08-06T04:51:22;18.30;93.50
12704;DHT22;6416;52.182;7.650;2023-08-06T04:53:48;18.40;93.50
12704;DHT22;6416;52.182;7.650;2023-08-06T04:56:13;18.40;93.50
12704;DHT22;6416;52.182;7.650;2023-08-06T04:58:38;18.50;93.60
12704;DHT22;6416;52.182;7.650;2023-08-06T05:01:04;18.50;93.60
12704;DHT22;6416;52.182;7.650;2023-08-06T05:03:29;18.50;93.60
12704;DHT22;6416;52.182;7.650;2023-08-06T05:05:55;18.60;93.70
12704;DHT22;6416;52.182;7.650;2023-08-06T05:08:20;18.60;93.70
12704;DHT22;6416;52.182;7.650;2023-08-06T05:10:46;18.60;93.60
12704;DHT22;6416;52.182;7.650;2023-08-06T05:13:12;18.60;93.70
12704;DHT22;6416;52.182;7.650;2023-08-06T05:15:41;18.70;93.80
12704;DHT22;6416;52.182;7.650;2023-08-06T05:18:07;18.70;93.70
12704;DHT22;6416;52.182;7.650;2023-08-06T05:20:36;18.70;93.80
12704;DHT22;6416;52.182;7.650;2023-08-06T05:23:02;18.80;93.90
12704;DHT22;6416;52.182;7.650;2023-08-06T05:25:27;18.90;94.00
12704;DHT22;6416;52.182;7.650;2023-08-06T05:27:53;18.90;94.20
12704;DHT22;6416;52.182;7.650;2023-08-06T05:30:18;19.00;94.30
12704;DHT22;6416;52.182;7.650;2023-08-06T05:32:43;19.20;94.50
12704;DHT22;6416;52.182;7.650;2023-08-06T05:35:09;19.30;94.50
12704;DHT22;6416;52.182;7.650;2023-08-06T05:37:34;19.50;94.70
12704;DHT22;6416;52.182;7.650;2023-08-06T05:40:00;19.70;95.00
12704;DHT22;6416;52.182;7.650;2023-08-06T05:42:25;20.00;95.10
12704;DHT22;6416;52.182;7.650;2023-08-06T05:44:51;20.20;94.80
12704;DHT22;6416;52.182;7.650;2023-08-06T05:47:16;20.50;94.60
12704;DHT22;6416;52.182;7.650;2023-08-06T05:49:42;20.70;94.30
12704;DHT22;6416;52.182;7.650;2023-08-06T05:52:07;20.90;94.00
12704;DHT22;6416;52.182;7.650;2023-08-06T05:54:33;21.10;93.80
12704;DHT22;6416;52.182;7.650;2023-08-06T05:56:58;21.40;93.70
12704;DHT22;6416;52.182;7.650;2023-08-06T05:59:23;21.60;93.40
12704;DHT22;6416;52.182;7.650;2023-08-06T06:01:49;21.80;93.10
12704;DHT22;6416;52.182;7.650;2023-08-06T06:04:14;22.00;92.70
12704;DHT22;6416;52.182;7.650;2023-08-06T06:06:40;22.10;92.20
12704;DHT22;6416;52.182;7.650;2023-08-06T06:09:05;22.30;92.20
12704;DHT22;6416;52.182;7.650;2023-08-06T06:11:31;22.40;92.20
12704;DHT22;6416;52.182;7.650;2023-08-06T06:13:56;22.60;92.00
12704;DHT22;6416;52.182;7.650;2023-08-06T06:16:22;22.80;91.80
12704;DHT22;6416;52.182;7.650;2023-08-06T06:18:47;23.10;91.90
12704;DHT22;6416;52.182;7.650;2023-08-06T06:21:13;23.30;92.00
12704;DHT22;6416;52.182;7.650;2023-08-06T06:23:38;23.60;91.70
12704;DHT22;6416;52.182;7.650;2023-08-06T06:26:03;23.80;91.50
12704;DHT22;6416;52.182;7.650;2023-08-06T06:28:29;24.10;91.30
12704;DHT22;6416;52.182;7.650;2023-08-06T06:31:00;24.30;91.00
12704;DHT22;6416;52.182;7.650;2023-08-06T06:33:25;24.60;90.00
12704;DHT22;6416;52.182;7.650;2023-08-06T06:35:51;24.90;90.30
12704;DHT22;6416;52.182;7.650;2023-08-06T06:38:17;25.10;89.20
12704;DHT22;6416;52.182;7.650;2023-08-06T06:40:42;25.30;88.00
12704;DHT22;6416;52.182;7.650;2023-08-06T06:43:07;25.40;86.90
12704;DHT22;6416;52.182;7.650;2023-08-06T06:45:33;25.40;85.70
12704;DHT22;6416;52.182;7.650;2023-08-06T06:47:58;25.40;84.90
12704;DHT22;6416;52.182;7.650;2023-08-06T06:50:24;25.40;84.40
12704;DHT22;6416;52.182;7.650;2023-08-06T06:52:49;25.30;83.80
12704;DHT22;6416;52.182;7.650;2023-08-06T06:55:15;25.20;83.40
12704;DHT22;6416;52.182;7.650;2023-08-06T06:57:40;25.00;82.50
12704;DHT22;6416;52.182;7.650;2023-08-06T07:00:06;24.90;82.20
12704;DHT22;6416;52.182;7.650;2023-08-06T07:02:32;24.70;82.10
12704;DHT22;6416;52.182;7.650;2023-08-06T07:04:57;24.60;81.70
12704;DHT22;6416;52.182;7.650;2023-08-06T07:07:23;24.40;81.60
12704;DHT22;6416;52.182;7.650;2023-08-06T07:09:48;24.20;82.00
12704;DHT22;6416;52.182;7.650;2023-08-06T07:12:14;24.10;82.10
12704;DHT22;6416;52.182;7.650;2023-08-06T07:14:39;24.00;82.80
12704;DHT22;6416;52.182;7.650;2023-08-06T07:17:05;23.90;82.10
12704;DHT22;6416;52.182;7.650;2023-08-06T07:19:30;23.80;82.30
12704;DHT22;6416;52.182;7.650;2023-08-06T07:21:56;23.70;82.20
12704;DHT22;6416;52.182;7.650;2023-08-06T07:24:21;23.70;82.40
12704;DHT22;6416;52.182;7.650;2023-08-06T07:26:47;23.60;82.50
12704;DHT22;6416;52.182;7.650;2023-08-06T07:29:12;23.60;82.30
12704;DHT22;6416;52.182;7.650;2023-08-06T07:31:38;23.60;82.40
12704;DHT22;6416;52.182;7.650;2023-08-06T07:34:03;23.50;82.40
12704;DHT22;6416;52.182;7.650;2023-08-06T07:36:29;23.50;82.50
12704;DHT22;6416;52.182;7.650;2023-08-06T07:38:54;23.50;82.40
12704;DHT22;6416;52.182;7.650;2023-08-06T07:41:20;23.50;82.60
12704;DHT22;6416;52.182;7.650;2023-08-06T07:43:45;23.50;83.00
12704;DHT22;6416;52.182;7.650;2023-08-06T07:46:10;23.60;83.60
12704;DHT22;6416;52.182;7.650;2023-08-06T07:48:36;23.60;84.00
12704;DHT22;6416;52.182;7.650;2023-08-06T07:51:01;23.70;83.70
12704;DHT22;6416;52.182;7.650;2023-08-06T07:53:27;23.80;83.50
12704;DHT22;6416;52.182;7.650;2023-08-06T07:55:54;23.90;83.30
12704;DHT22;6416;52.182;7.650;2023-08-06T07:58:20;24.00;83.30
12704;DHT22;6416;52.182;7.650;2023-08-06T08:00:46;24.00;83.50
12704;DHT22;6416;52.182;7.650;2023-08-06T08:03:12;24.10;83.40
12704;DHT22;6416;52.182;7.650;2023-08-06T08:05:38;24.20;83.70
12704;DHT22;6416;52.182;7.650;2023-08-06T08:08:03;24.40;84.40
12704;DHT22;6416;52.182;7.650;2023-08-06T08:10:29;24.50;84.80
12704;DHT22;6416;52.182;7.650;2023-08-06T08:12:54;24.80;85.80
12704;DHT22;6416;52.182;7.650;2023-08-06T08:15:20;25.00;85.90
12704;DHT22;6416;52.182;7.650;2023-08-06T08:17:45;25.30;85.40
12704;DHT22;6416;52.182;7.650;2023-08-06T08:20:11;25.40;84.60
12704;DHT22;6416;52.182;7.650;2023-08-06T08:22:36;25.60;84.30
12704;DHT22;6416;52.182;7.650;2023-08-06T08:25:02;25.80;84.10
12704;DHT22;6416;52.182;7.650;2023-08-06T08:27:27;25.90;83.70
12704;DHT22;6416;52.182;7.650;2023-08-06T08:29:53;26.00;83.20
12704;DHT22;6416;52.182;7.650;2023-08-06T08:32:18;26.10;82.70
12704;DHT22;6416;52.182;7.650;2023-08-06T08:34:44;26.30;82.10
12704;DHT22;6416;52.182;7.650;2023-08-06T08:37:09;26.40;81.20
12704;DHT22;6416;52.182;7.650;2023-08-06T08:39:35;26.30;77.80
12704;DHT22;6416;52.182;7.650;2023-08-06T08:42:00;26.40;79.30
12704;DHT22;6416;52.182;7.650;2023-08-06T08:44:26;26.40;79.70
12704;DHT22;6416;52.182;7.650;2023-08-06T08:46:52;26.60;79.50
12704;DHT22;6416;52.182;7.650;2023-08-06T08:49:18;26.60;79.30
12704;DHT22;6416;52.182;7.650;2023-08-06T08:51:46;26.60;79.00
12704;DHT22;6416;52.182;7.650;2023-08-06T08:54:13;26.70;78.60
12704;DHT22;6416;52.182;7.650;2023-08-06T08:56:40;26.80;78.70
12704;DHT22;6416;52.182;7.650;2023-08-06T08:59:06;26.80;79.10
12704;DHT22;6416;52.182;7.650;2023-08-06T09:01:31;27.00;79.40
12704;DHT22;6416;52.182;7.650;2023-08-06T09:03:58;27.10;79.60
12704;DHT22;6416;52.182;7.650;2023-08-06T09:06:26;27.30;79.20
12704;DHT22;6416;52.182;7.650;2023-08-06T09:09:06;27.40;78.60
12704;DHT22;6416;52.182;7.650;2023-08-06T09:11:39;27.50;76.60
12704;DHT22;6416;52.182;7.650;2023-08-06T09:14:08;27.60;77.10
12704;DHT22;6416;52.182;7.650;2023-08-06T09:16:37;27.60;77.60
12704;DHT22;6416;52.182;7.650;2023-08-06T09:19:13;27.70;77.00
12704;DHT22;6416;52.182;7.650;2023-08-06T09:21:39;27.80;73.60
12704;DHT22;6416;52.182;7.650;2023-08-06T09:24:12;27.80;76.20
12704;DHT22;6416;52.182;7.650;2023-08-06T09:26:38;27.80;73.30
12704;DHT22;6416;52.182;7.650;2023-08-06T09:29:08;27.90;75.60
12704;DHT22;6416;52.182;7.650;2023-08-06T09:31:41;27.90;74.30
12704;DHT22;6416;52.182;7.650;2023-08-06T09:34:20;28.00;73.70
12704;DHT22;6416;52.182;7.650;2023-08-06T09:36:53;28.30;75.60
12704;DHT22;6416;52.182;7.650;2023-08-06T09:39:20;28.60;75.80
12704;DHT22;6416;52.182;7.650;2023-08-06T09:41:47;29.00;77.70
12704;DHT22;6416;52.182;7.650;2023-08-06T09:44:17;29.30;77.60
12704;DHT22;6416;52.182;7.650;2023-08-06T09:46:42;29.70;75.80
12704;DHT22;6416;52.182;7.650;2023-08-06T09:49:08;30.00;76.50
12704;DHT22;6416;52.182;7.650;2023-08-06T09:51:34;30.30;74.90
12704;DHT22;6416;52.182;7.650;2023-08-06T09:54:01;30.40;74.00
12704;DHT22;6416;52.182;7.650;2023-08-06T09:56:26;30.60;74.00
12704;DHT22;6416;52.182;7.650;2023-08-06T09:58:53;30.80;74.00
12704;DHT22;6416;52.182;7.650;2023-08-06T10:01:19;31.10;74.10
12704;DHT22;6416;52.182;7.650;2023-08-06T10:03:46;31.50;74.10
12704;DHT22;6416;52.182;7.650;2023-08-06T10:06:12;31.70;73.60
12704;DHT22;6416;52.182;7.650;2023-08-06T10:08:38;31.90;71.70
12704;DHT22;6416;52.182;7.650;2023-08-06T10:11:03;32.00;70.40
12704;DHT22;6416;52.182;7.650;2023-08-06T10:13:30;32.10;69.80
12704;DHT22;6416;52.182;7.650;2023-08-06T10:15:56;32.20;71.00
12704;DHT22;6416;52.182;7.650;2023-08-06T10:18:22;32.40;71.00
12704;DHT22;6416;52.182;7.650;2023-08-06T10:20:48;32.60;70.50
12704;DHT22;6416;52.182;7.650;2023-08-06T10:23:13;32.70;69.10
12704;DHT22;6416;52.182;7.650;2023-08-06T10:25:43;32.60;67.60
12704;DHT22;6416;52.182;7.650;2023-08-06T10:28:09;32.80;66.30
12704;DHT22;6416;52.182;7.650;2023-08-06T10:30:42;32.90;67.30
12704;DHT22;6416;52.182;7.650;2023-08-06T10:33:08;32.80;63.20
12704;DHT22;6416;52.182;7.650;2023-08-06T10:35:42;32.70;64.60
12704;DHT22;6416;52.182;7.650;2023-08-06T10:38:12;32.50;60.70
12704;DHT22;6416;52.182;7.650;2023-08-06T10:40:48;32.20;61.90
12704;DHT22;6416;52.182;7.650;2023-08-06T10:43:27;32.00;61.10
12704;DHT22;6416;52.182;7.650;2023-08-06T10:45:53;31.70;59.80
12704;DHT22;6416;52.182;7.650;2023-08-06T10:48:35;31.60;63.10
12704;DHT22;6416;52.182;7.650;2023-08-06T10:51:02;31.50;62.10
12704;DHT22;6416;52.182;7.650;2023-08-06T10:53:27;31.50;64.40
12704;DHT22;6416;52.182;7.650;2023-08-06T10:55:53;31.40;63.70
12704;DHT22;6416;52.182;7.650;2023-08-06T10:58:19;31.40;63.70
12704;DHT22;6416;52.182;7.650;2023-08-06T11:00:45;31.50;65.10
12704;DHT22;6416;52.182;7.650;2023-08-06T11:03:10;31.70;67.40
12704;DHT22;6416;52.182;7.650;2023-08-06T11:05:36;32.10;68.50
12704;DHT22;6416;52.182;7.650;2023-08-06T11:08:02;32.50;68.90
12704;DHT22;6416;52.182;7.650;2023-08-06T11:10:27;32.80;67.40
12704;DHT22;6416;52.182;7.650;2023-08-06T11:12:53;32.90;65.40
12704;DHT22;6416;52.182;7.650;2023-08-06T11:15:20;33.00;64.00
12704;DHT22;6416;52.182;7.650;2023-08-06T11:17:46;32.90;62.30
12704;DHT22;6416;52.182;7.650;2023-08-06T11:20:12;32.80;61.60
12704;DHT22;6416;52.182;7.650;2023-08-06T11:22:37;32.60;60.70
12704;DHT22;6416;52.182;7.650;2023-08-06T11:25:05;32.40;60.50
12704;DHT22;6416;52.182;7.650;2023-08-06T11:27:30;32.20;60.00
12704;DHT22;6416;52.182;7.650;2023-08-06T11:29:56;32.00;60.70
12704;DHT22;6416;52.182;7.650;2023-08-06T11:32:21;31.80;60.00
12704;DHT22;6416;52.182;7.650;2023-08-06T11:34:47;31.60;59.80
12704;DHT22;6416;52.182;7.650;2023-08-06T11:37:12;31.50;59.70
12704;DHT22;6416;52.182;7.650;2023-08-06T11:39:39;31.30;60.00
12704;DHT22;6416;52.182;7.650;2023-08-06T11:42:09;31.10;60.20
12704;DHT22;6416;52.182;7.650;2023-08-06T11:44:36;30.90;60.40
12704;DHT22;6416;52.182;7.650;2023-08-06T11:47:03;30.80;60.70
12704;DHT22;6416;52.182;7.650;2023-08-06T11:49:47;30.60;60.40
12704;DHT22;6416;52.182;7.650;2023-08-06T11:52:14;30.50;59.10
12704;DHT22;6416;52.182;7.650;2023-08-06T11:54:40;30.40;61.10
12704;DHT22;6416;52.182;7.650;2023-08-06T11:57:06;30.30;60.80
12704;DHT22;6416;52.182;7.650;2023-08-06T11:59:31;30.20;60.80
12704;DHT22;6416;52.182;7.650;2023-08-06T12:01:57;30.10;60.80
12704;DHT22;6416;52.182;7.650;2023-08-06T12:04:22;30.00;60.80
12704;DHT22;6416;52.182;7.650;2023-08-06T12:06:48;29.90;61.10
12704;DHT22;6416;52.182;7.650;2023-08-06T12:09:13;29.80;61.40
12704;DHT22;6416;52.182;7.650;2023-08-06T12:11:40;29.70;61.60
12704;DHT22;6416;52.182;7.650;2023-08-06T12:14:05;29.60;61.80
12704;DHT22;6416;52.182;7.650;2023-08-06T12:16:31;29.50;62.00
12704;DHT22;6416;52.182;7.650;2023-08-06T12:18:56;29.40;62.40
12704;DHT22;6416;52.182;7.650;2023-08-06T12:21:22;29.30;62.30
12704;DHT22;6416;52.182;7.650;2023-08-06T12:23:47;29.20;62.20
12704;DHT22;6416;52.182;7.650;2023-08-06T12:26:13;29.10;62.20
12704;DHT22;6416;52.182;7.650;2023-08-06T12:28:38;29.10;62.30
12704;DHT22;6416;52.182;7.650;2023-08-06T12:31:03;29.00;62.40
12704;DHT22;6416;52.182;7.650;2023-08-06T12:33:29;28.90;62.60
12704;DHT22;6416;52.182;7.650;2023-08-06T12:35:55;28.90;62.50
12704;DHT22;6416;52.182;7.650;2023-08-06T12:38:20;28.80;63.30
12704;DHT22;6416;52.182;7.650;2023-08-06T12:40:46;28.80;63.10
12704;DHT22;6416;52.182;7.650;2023-08-06T12:43:11;28.80;63.10
12704;DHT22;6416;52.182;7.650;2023-08-06T12:45:37;28.80;63.30
12704;DHT22;6416;52.182;7.650;2023-08-06T12:48:03;28.80;63.20
12704;DHT22;6416;52.182;7.650;2023-08-06T12:50:29;28.80;63.20
12704;DHT22;6416;52.182;7.650;2023-08-06T12:52:54;28.80;63.10
12704;DHT22;6416;52.182;7.650;2023-08-06T12:55:20;28.80;63.10
12704;DHT22;6416;52.182;7.650;2023-08-06T12:57:45;28.80;62.90
12704;DHT22;6416;52.182;7.650;2023-08-06T13:00:11;28.70;63.10
12704;DHT22;6416;52.182;7.650;2023-08-06T13:02:36;28.70;62.90
12704;DHT22;6416;52.182;7.650;2023-08-06T13:05:02;28.70;62.90
12704;DHT22;6416;52.182;7.650;2023-08-06T13:07:27;28.70;62.70
12704;DHT22;6416;52.182;7.650;2023-08-06T13:09:53;28.60;62.30
12704;DHT22;6416;52.182;7.650;2023-08-06T13:12:19;28.60;62.20
12704;DHT22;6416;52.182;7.650;2023-08-06T13:14:44;28.60;62.30
12704;DHT22;6416;52.182;7.650;2023-08-06T13:17:10;28.60;61.60
12704;DHT22;6416;52.182;7.650;2023-08-06T13:19:35;28.60;61.30
12704;DHT22;6416;52.182;7.650;2023-08-06T13:22:03;28.60;61.50
12704;DHT22;6416;52.182;7.650;2023-08-06T13:24:28;28.50;61.30
12704;DHT22;6416;52.182;7.650;2023-08-06T13:26:54;28.50;61.60
12704;DHT22;6416;52.182;7.650;2023-08-06T13:29:20;28.50;61.60
12704;DHT22;6416;52.182;7.650;2023-08-06T13:31:45;28.50;61.80
12704;DHT22;6416;52.182;7.650;2023-08-06T13:34:11;28.40;60.60
12704;DHT22;6416;52.182;7.650;2023-08-06T13:36:36;28.40;60.70
12704;DHT22;6416;52.182;7.650;2023-08-06T13:39:02;28.30;60.20
12704;DHT22;6416;52.182;7.650;2023-08-06T13:41:30;28.20;60.10
12704;DHT22;6416;52.182;7.650;2023-08-06T13:43:56;28.10;59.40
12704;DHT22;6416;52.182;7.650;2023-08-06T13:46:21;28.10;59.90
12704;DHT22;6416;52.182;7.650;2023-08-06T13:48:48;28.00;60.00
12704;DHT22;6416;52.182;7.650;2023-08-06T13:51:13;27.90;59.90
12704;DHT22;6416;52.182;7.650;2023-08-06T13:53:40;27.80;60.10
12704;DHT22;6416;52.182;7.650;2023-08-06T13:56:06;27.80;60.90
12704;DHT22;6416;52.182;7.650;2023-08-06T13:58:32;27.70;61.40
12704;DHT22;6416;52.182;7.650;2023-08-06T14:00:58;27.60;61.90
12704;DHT22;6416;52.182;7.650;2023-08-06T14:03:24;27.60;62.40
12704;DHT22;6416;52.182;7.650;2023-08-06T14:05:49;27.60;62.50
12704;DHT22;6416;52.182;7.650;2023-08-06T14:08:15;27.50;62.40
12704;DHT22;6416;52.182;7.650;2023-08-06T14:10:41;27.50;62.30
12704;DHT22;6416;52.182;7.650;2023-08-06T14:13:06;27.40;61.90
12704;DHT22;6416;52.182;7.650;2023-08-06T14:15:32;27.30;61.60
12704;DHT22;6416;52.182;7.650;2023-08-06T14:17:57;27.20;61.20
12704;DHT22;6416;52.182;7.650;2023-08-06T14:20:26;27.00;61.00
12704;DHT22;6416;52.182;7.650;2023-08-06T14:22:51;26.80;60.90
12704;DHT22;6416;52.182;7.650;2023-08-06T14:25:17;26.60;61.30
12704;DHT22;6416;52.182;7.650;2023-08-06T14:27:42;26.50;61.60
12704;DHT22;6416;52.182;7.650;2023-08-06T14:30:08;26.30;61.60
12704;DHT22;6416;52.182;7.650;2023-08-06T14:32:33;26.10;62.60
12704;DHT22;6416;52.182;7.650;2023-08-06T14:34:59;25.90;62.00
12704;DHT22;6416;52.182;7.650;2023-08-06T14:37:25;25.80;62.10
12704;DHT22;6416;52.182;7.650;2023-08-06T14:39:51;25.60;62.40
12704;DHT22;6416;52.182;7.650;2023-08-06T14:42:17;25.40;62.60
12704;DHT22;6416;52.182;7.650;2023-08-06T14:44:43;25.20;63.00
12704;DHT22;6416;52.182;7.650;2023-08-06T14:47:08;25.10;63.40
12704;DHT22;6416;52.182;7.650;2023-08-06T14:49:34;25.00;63.90
12704;DHT22;6416;52.182;7.650;2023-08-06T14:51:59;24.90;65.20
12704;DHT22;6416;52.182;7.650;2023-08-06T14:54:25;24.80;64.80
12704;DHT22;6416;52.182;7.650;2023-08-06T14:56:50;24.70;65.20
12704;DHT22;6416;52.182;7.650;2023-08-06T14:59:15;24.60;65.40
12704;DHT22;6416;52.182;7.650;2023-08-06T15:01:41;24.60;65.60
12704;DHT22;6416;52.182;7.650;2023-08-06T15:04:06;24.50;65.60
12704;DHT22;6416;52.182;7.650;2023-08-06T15:06:32;24.40;65.70
12704;DHT22;6416;52.182;7.650;2023-08-06T15:08:57;24.40;66.10
12704;DHT22;6416;52.182;7.650;2023-08-06T15:11:23;24.40;66.40
12704;DHT22;6416;52.182;7.650;2023-08-06T15:13:48;24.30;66.30
12704;DHT22;6416;52.182;7.650;2023-08-06T15:16:14;24.20;66.20
12704;DHT22;6416;52.182;7.650;2023-08-06T15:18:39;24.20;66.50
12704;DHT22;6416;52.182;7.650;2023-08-06T15:21:05;24.10;66.60
12704;DHT22;6416;52.182;7.650;2023-08-06T15:23:30;24.00;66.40
12704;DHT22;6416;52.182;7.650;2023-08-06T15:25:56;23.90;66.40
12704;DHT22;6416;52.182;7.650;2023-08-06T15:28:21;23.90;66.60
12704;DHT22;6416;52.182;7.650;2023-08-06T15:30:50;23.70;66.70
12704;DHT22;6416;52.182;7.650;2023-08-06T15:33:18;23.70;67.10
12704;DHT22;6416;52.182;7.650;2023-08-06T15:35:43;23.60;67.30
12704;DHT22;6416;52.182;7.650;2023-08-06T15:38:09;23.60;67.40